Time;durP1;ratioP1;P1;durP2;ratioP2;P2;SDS_P1;SDS_P2;PMS_P1;PMS_P2;Temp;Humidity;BMP_temperature;BMP_pressure;BME280_temperature;BME280_humidity;BME280_pressure;Samples;Min_cycle;Max_cycle;Signal;HPM_P1;HPM_P2
2022/03/23 00:01:34;;;;;;;37.22;23.92;;;6.70;99.90;;;;;;4987457;28;20058;-66
2022/03/23 00:04:00;;;;;;;32.40;21.65;;;6.70;99.90;;;;;;4995592;28;20495;-66
2022/03/23 00:06:25;;;;;;;33.65;22.58;;;6.50;99.90;;;;;;4993859;28;20121;-66
2022/03/23 00:08:51;;;;;;;32.33;21.75;;;6.60;99.90;;;;;;4994404;28;20070;-67
2022/03/23 00:11:17;;;;;;;32.38;22.63;;;6.50;99.90;;;;;;4995812;28;20050;-65
2022/03/23 00:13:43;;;;;;;38.42;23.25;;;6.50;99.90;;;;;;4987964;28;20483;-66
2022/03/23 00:16:08;;;;;;;37.25;23.95;;;6.40;99.90;;;;;;4993276;28;20058;-66
2022/03/23 00:18:34;;;;;;;32.90;21.95;;;6.50;99.90;;;;;;4995077;28;20058;-66
2022/03/23 00:21:00;;;;;;;34.28;22.98;;;6.40;99.90;;;;;;4994338;28;20046;-65
2022/03/23 00:23:25;;;;;;;35.38;23.52;;;6.40;99.90;;;;;;4984016;28;20494;-65
2022/03/23 00:25:51;;;;;;;38.67;23.63;;;6.40;99.90;;;;;;4994000;28;20464;-66
2022/03/23 00:28:19;;;;;;;39.78;25.05;;;6.40;99.90;;;;;;4992753;28;20042;-66
2022/03/23 00:30:45;;;;;;;34.38;24.05;;;6.30;99.90;;;;;;4993673;28;20109;-66
2022/03/23 00:33:11;;;;;;;35.28;24.63;;;6.30;99.90;;;;;;4993107;28;20406;-66
2022/03/23 00:35:37;;;;;;;43.10;29.27;;;6.20;99.90;;;;;;4993107;28;20054;-67
2022/03/23 00:38:02;;;;;;;37.42;25.50;;;6.20;99.90;;;;;;4993471;28;20061;-66
2022/03/23 00:40:28;;;;;;;40.03;25.65;;;6.30;99.90;;;;;;4993663;28;20053;-65
2022/03/23 00:43:01;;;;;;;40.97;24.73;;;6.10;99.90;;;;;;4990651;28;20082;-67
2022/03/23 00:45:29;;;;;;;42.95;25.70;;;6.10;99.90;;;;;;4992263;28;20133;-66
2022/03/23 00:47:56;;;;;;;37.05;25.85;;;6.00;99.90;;;;;;4995024;28;20050;-66
2022/03/23 00:50:22;;;;;;;41.75;25.50;;;6.00;99.90;;;;;;4992248;28;20584;-66
2022/03/23 00:52:48;;;;;;;34.35;25.17;;;6.00;99.90;;;;;;5009591;28;20101;-66
2022/03/23 00:55:14;;;;;;;33.50;23.13;;;6.00;99.90;;;;;;4993572;28;20394;-66
2022/03/23 00:57:40;;;;;;;37.17;24.73;;;5.90;99.90;;;;;;4993412;28;20046;-66
2022/03/23 01:00:12;;;;;;;45.20;26.73;;;6.00;99.90;;;;;;4993225;28;20136;-66
2022/03/23 01:02:41;;;;;;;43.85;25.83;;;6.00;99.90;;;;;;4994577;28;20050;-66
2022/03/23 01:05:08;;;;;;;39.47;26.25;;;6.00;99.90;;;;;;4993170;28;20054;-66
2022/03/23 01:07:35;;;;;;;40.40;25.92;;;6.10;99.90;;;;;;4994102;28;20050;-66
2022/03/23 01:10:00;;;;;;;37.60;25.15;;;6.10;99.90;;;;;;4993218;28;20085;-66
2022/03/23 01:12:26;;;;;;;40.20;25.33;;;6.00;99.90;;;;;;4992955;28;20499;-68
2022/03/23 01:14:52;;;;;;;41.22;26.27;;;6.00;99.90;;;;;;4993024;28;20058;-65
2022/03/23 01:17:17;;;;;;;41.10;27.02;;;5.90;99.90;;;;;;4993426;28;20057;-66
2022/03/23 01:19:43;;;;;;;40.42;25.25;;;5.90;99.90;;;;;;4993642;28;20133;-66
2022/03/23 01:22:09;;;;;;;40.72;26.38;;;5.90;99.90;;;;;;4992346;28;20113;-66
2022/03/23 01:24:35;;;;;;;48.65;27.58;;;5.80;99.90;;;;;;4992913;28;20050;-66
2022/03/23 01:27:01;;;;;;;43.22;26.63;;;5.80;99.90;;;;;;5009151;28;20100;-66
2022/03/23 01:29:27;;;;;;;39.85;25.80;;;5.80;99.90;;;;;;4992518;28;20480;-66
2022/03/23 01:31:53;;;;;;;42.28;26.38;;;5.80;99.90;;;;;;4992598;28;20116;-66
2022/03/23 01:34:18;;;;;;;39.28;26.20;;;5.70;99.90;;;;;;4992390;28;20143;-66
2022/03/23 01:36:44;;;;;;;41.28;26.58;;;5.70;99.90;;;;;;4991956;28;20161;-66
2022/03/23 01:39:10;;;;;;;41.60;27.42;;;5.60;99.90;;;;;;4992273;28;20136;-67
2022/03/23 01:41:39;;;;;;;41.38;26.92;;;5.70;99.90;;;;;;4993004;28;20074;-66
2022/03/23 01:44:24;;;;;;;50.60;28.45;;;5.60;99.90;;;;;;4993111;28;20501;-66
2022/03/23 01:47:07;;;;;;;40.45;26.33;;;5.60;99.90;;;;;;4973470;28;20173;-66
2022/03/23 01:49:36;;;;;;;;;;;5.60;99.90;;;;;;4994174;28;20062;-65
2022/03/23 01:52:06;;;;;;;40.13;24.73;;;5.50;99.90;;;;;;4993733;28;19933;-66
2022/03/23 01:54:32;;;;;;;39.88;26.17;;;5.50;99.90;;;;;;4991341;28;20069;-66
2022/03/23 01:56:58;;;;;;;42.03;26.88;;;5.50;99.90;;;;;;4975631;28;20059;-67
2022/03/23 01:59:25;;;;;;;40.58;25.60;;;5.50;99.90;;;;;;4993693;28;20046;-66
2022/03/23 02:01:51;;;;;;;40.47;24.15;;;5.40;99.90;;;;;;4989236;28;20475;-65
2022/03/23 02:04:18;;;;;;;42.78;26.92;;;5.50;99.90;;;;;;4992190;28;20061;-66
2022/03/23 02:06:43;;;;;;;39.83;24.80;;;5.40;99.90;;;;;;4993292;28;20498;-66
2022/03/23 02:09:09;;;;;;;36.40;25.08;;;5.40;99.90;;;;;;4989722;28;20053;-65
2022/03/23 02:11:37;;;;;;;38.20;25.13;;;5.40;99.90;;;;;;4991817;28;20112;-66
2022/03/23 02:14:03;;;;;;;40.97;24.98;;;5.30;99.90;;;;;;4993561;28;20046;-66
2022/03/23 02:16:29;;;;;;;38.50;25.20;;;5.30;99.90;;;;;;4991030;28;20402;-66
2022/03/23 02:18:54;;;;;;;43.97;24.90;;;5.40;99.90;;;;;;4993084;28;20129;-66
2022/03/23 02:21:20;;;;;;;40.30;26.05;;;5.20;99.90;;;;;;4993373;28;20104;-66
2022/03/23 02:23:45;;;;;;;44.05;25.85;;;5.20;99.90;;;;;;4991763;28;20077;-67
2022/03/23 02:26:12;;;;;;;39.85;25.90;;;5.20;99.90;;;;;;4991769;28;20109;-66
2022/03/23 02:28:37;;;;;;;40.25;26.58;;;5.20;99.90;;;;;;4991331;28;20164;-66
2022/03/23 02:31:04;;;;;;;38.70;25.33;;;5.10;99.90;;;;;;4991720;28;20129;-67
2022/03/23 02:33:29;;;;;;;41.95;27.40;;;5.10;99.90;;;;;;4981017;28;20055;-67
2022/03/23 02:35:55;;;;;;;40.78;25.73;;;5.10;99.90;;;;;;4992177;28;20061;-67
2022/03/23 02:38:20;;;;;;;41.42;25.77;;;5.10;99.90;;;;;;4991911;28;20050;-66
2022/03/23 02:40:47;;;;;;;45.50;27.38;;;5.10;99.90;;;;;;4992487;28;20482;-66
2022/03/23 02:43:14;;;;;;;45.60;26.17;;;5.00;99.90;;;;;;4992303;28;20094;-66
2022/03/23 02:45:39;;;;;;;44.72;27.42;;;5.00;99.90;;;;;;4992997;28;20051;-66
2022/03/23 02:48:06;;;;;;;42.05;26.00;;;5.00;99.90;;;;;;4990596;28;20053;-66
2022/03/23 02:50:33;;;;;;;43.92;27.33;;;5.00;99.90;;;;;;4991137;28;20054;-66
2022/03/23 03:02:14;;;;;;;40.15;24.65;;;4.90;99.90;;;;;;4992705;28;20054;-66
2022/03/23 03:04:15;;;;;;;42.53;25.30;;;4.80;99.90;;;;;;4986115;28;20038;-67
2022/03/23 03:06:40;;;;;;;41.63;24.63;;;4.70;99.90;;;;;;4995472;28;20508;-67
2022/03/23 03:09:06;;;;;;;42.92;25.90;;;4.70;99.90;;;;;;4995557;28;20042;-67
2022/03/23 03:11:32;;;;;;;39.78;24.77;;;4.70;99.90;;;;;;4995089;28;20136;-66
2022/03/23 03:13:57;;;;;;;39.00;24.30;;;4.80;99.90;;;;;;4995082;28;20056;-66
2022/03/23 03:16:23;;;;;;;41.13;26.50;;;4.70;99.90;;;;;;4984576;28;20059;-66
2022/03/23 03:18:48;;;;;;;44.05;25.05;;;4.60;99.90;;;;;;4993600;28;20049;-67
2022/03/23 03:21:15;;;;;;;43.80;27.42;;;4.60;99.90;;;;;;4995616;28;20050;-66
2022/03/23 03:23:42;;;;;;;52.83;28.65;;;4.60;99.90;;;;;;4993794;28;20092;-66
2022/03/23 03:26:12;;;;;;;45.55;26.05;;;4.60;99.90;;;;;;4996377;28;20050;-66
2022/03/23 03:28:39;;;;;;;43.78;27.65;;;4.60;99.90;;;;;;4994258;28;20427;-66
2022/03/23 03:31:07;;;;;;;41.70;25.13;;;4.60;99.90;;;;;;4995074;28;20423;-67
2022/03/23 03:33:33;;;;;;;47.63;26.80;;;4.60;99.90;;;;;;4996148;28;20060;-67
2022/03/23 03:35:59;;;;;;;43.08;26.70;;;4.60;99.90;;;;;;5011202;28;20054;-67
2022/03/23 03:38:26;;;;;;;40.83;25.67;;;4.50;99.90;;;;;;4994836;28;20077;-66
2022/03/23 03:40:51;;;;;;;41.58;25.52;;;4.50;99.90;;;;;;5007464;28;20051;-67
2022/03/23 03:43:17;;;;;;;41.05;27.35;;;4.50;99.90;;;;;;4989896;28;20454;-67
2022/03/23 03:45:46;;;;;;;41.38;27.00;;;4.50;99.90;;;;;;4994641;28;20054;-67
2022/03/23 03:48:13;;;;;;;38.10;23.27;;;4.50;99.90;;;;;;4995996;28;20506;-66
2022/03/23 03:50:39;;;;;;;41.25;25.58;;;4.50;99.90;;;;;;4995698;28;20070;-67
2022/03/23 03:53:07;;;;;;;37.75;24.23;;;4.50;99.90;;;;;;4985576;28;20050;-66
2022/03/23 03:55:34;;;;;;;45.05;25.92;;;4.40;99.90;;;;;;4976056;28;20057;-66
2022/03/23 03:57:59;;;;;;;43.72;26.48;;;4.40;99.90;;;;;;4994027;28;20134;-67
2022/03/23 04:00:25;;;;;;;42.85;24.88;;;4.40;99.90;;;;;;5007185;28;20138;-67
2022/03/23 04:02:51;;;;;;;47.40;26.67;;;4.40;99.90;;;;;;4986956;28;20058;-67
2022/03/23 04:05:17;;;;;;;44.20;27.35;;;4.40;99.90;;;;;;4995923;28;20065;-66
2022/03/23 04:07:42;;;;;;;47.63;26.63;;;4.40;99.90;;;;;;4994587;28;20046;-67
2022/03/23 04:10:09;;;;;;;42.45;26.08;;;4.50;99.90;;;;;;4994107;28;20046;-66
2022/03/23 04:12:35;;;;;;;36.97;23.38;;;4.30;99.90;;;;;;4976694;28;20057;-67
2022/03/23 04:15:02;;;;;;;41.28;26.30;;;4.30;99.90;;;;;;4977658;28;20112;-66
2022/03/23 04:17:27;;;;;;;46.83;27.42;;;4.30;99.90;;;;;;4994844;28;20125;-66
2022/03/23 04:19:53;;;;;;;42.15;24.30;;;4.30;99.90;;;;;;4993828;28;20551;-66
2022/03/23 04:22:21;;;;;;;39.20;24.58;;;4.20;99.90;;;;;;4994503;28;20050;-67
2022/03/23 04:24:47;;;;;;;42.97;26.55;;;4.20;99.90;;;;;;4993692;28;20351;-66
2022/03/23 04:27:13;;;;;;;44.72;26.02;;;4.20;99.90;;;;;;4994899;28;20050;-67
2022/03/23 04:29:40;;;;;;;42.67;25.67;;;4.10;99.90;;;;;;4994757;28;20069;-66
2022/03/23 04:32:07;;;;;;;44.50;25.73;;;4.10;99.90;;;;;;4987153;28;20054;-66
2022/03/23 04:34:33;;;;;;;47.95;25.98;;;4.10;99.90;;;;;;4977830;28;20573;-67
2022/03/23 04:36:59;;;;;;;47.00;27.17;;;4.10;99.90;;;;;;4995358;28;20062;-67
2022/03/23 04:39:25;;;;;;;43.13;26.95;;;4.00;99.90;;;;;;5009987;28;20062;-66
2022/03/23 04:41:50;;;;;;;43.15;26.60;;;4.00;99.90;;;;;;4976839;28;20419;-66
2022/03/23 04:44:16;;;;;;;46.35;26.00;;;4.00;99.90;;;;;;4993310;28;20142;-66
2022/03/23 04:46:42;;;;;;;46.03;28.20;;;4.00;99.90;;;;;;4985752;28;20447;-66
2022/03/23 04:49:08;;;;;;;45.10;27.15;;;4.00;99.90;;;;;;4988419;28;20057;-66
2022/03/23 04:51:34;;;;;;;49.28;27.75;;;4.10;99.90;;;;;;4992860;28;20082;-66
2022/03/23 04:54:02;;;;;;;46.80;26.65;;;4.00;99.90;;;;;;4993556;28;20129;-67
2022/03/23 04:56:27;;;;;;;50.50;28.73;;;4.00;99.90;;;;;;5008798;28;20046;-66
2022/03/23 04:58:54;;;;;;;49.80;26.77;;;4.00;99.90;;;;;;4994835;28;20181;-66
2022/03/23 05:01:21;;;;;;;45.83;28.38;;;3.90;99.90;;;;;;4987821;28;20501;-68
2022/03/23 05:03:46;;;;;;;43.30;25.42;;;3.90;99.90;;;;;;4992665;28;20065;-67
2022/03/23 05:06:12;;;;;;;47.22;26.67;;;3.90;99.90;;;;;;4993899;28;20066;-66
2022/03/23 05:08:38;;;;;;;47.55;25.88;;;3.90;99.90;;;;;;4982362;28;20077;-67
2022/03/23 05:11:03;;;;;;;44.22;25.75;;;3.90;99.90;;;;;;4994415;28;20058;-65
2022/03/23 05:13:29;;;;;;;41.88;24.83;;;3.90;99.90;;;;;;4993708;28;20129;-66
2022/03/23 05:15:55;;;;;;;45.70;25.27;;;3.80;99.90;;;;;;4986452;28;20140;-67
2022/03/23 05:18:21;;;;;;;49.70;27.40;;;3.80;99.90;;;;;;4993551;28;20097;-66
2022/03/23 05:20:47;;;;;;;46.47;26.25;;;3.80;99.90;;;;;;4993073;28;20475;-66
2022/03/23 05:23:13;;;;;;;43.25;26.52;;;3.70;99.90;;;;;;4986218;28;20096;-66
2022/03/23 05:25:39;;;;;;;46.25;27.27;;;3.70;99.90;;;;;;4989836;28;20050;-67
2022/03/23 05:28:08;;;;;;;48.67;27.92;;;3.70;99.90;;;;;;4993108;28;20046;-67
2022/03/23 05:30:35;;;;;;;47.25;28.42;;;3.80;99.90;;;;;;4992694;28;20054;-67
2022/03/23 05:33:01;;;;;;;51.33;27.30;;;3.70;99.90;;;;;;4991993;28;20129;-66
2022/03/23 05:35:27;;;;;;;41.72;25.40;;;3.70;99.90;;;;;;4992663;28;20109;-66
2022/03/23 05:37:53;;;;;;;47.25;26.40;;;3.70;99.90;;;;;;4990890;28;20487;-66
2022/03/23 05:40:20;;;;;;;43.83;26.27;;;3.70;99.90;;;;;;4992618;28;20051;-66
2022/03/23 05:42:46;;;;;;;39.78;24.75;;;3.70;99.90;;;;;;4991503;28;20126;-67
2022/03/23 05:45:11;;;;;;;44.33;24.63;;;3.70;99.90;;;;;;4991293;28;20137;-67
2022/03/23 05:47:38;;;;;;;47.22;26.90;;;3.70;99.90;;;;;;4985446;28;20050;-67
2022/03/23 05:50:05;;;;;;;41.60;24.90;;;3.70;99.90;;;;;;4992351;28;20447;-66
2022/03/23 05:52:31;;;;;;;52.90;27.88;;;3.70;99.90;;;;;;4989346;28;20382;-65
2022/03/23 05:54:56;;;;;;;47.40;27.65;;;3.70;99.90;;;;;;4988173;28;20124;-67
2022/03/23 05:57:22;;;;;;;48.97;27.88;;;3.70;99.90;;;;;;4990600;28;20111;-68
2022/03/23 05:59:47;;;;;;;45.35;27.60;;;3.70;99.90;;;;;;4974359;28;20129;-65
2022/03/23 06:02:13;;;;;;;43.00;26.73;;;3.70;99.90;;;;;;4992671;28;20116;-67
2022/03/23 06:04:39;;;;;;;41.58;25.38;;;3.80;99.90;;;;;;4989980;28;20050;-64
2022/03/23 06:07:09;;;;;;;46.72;27.38;;;3.80;99.90;;;;;;4991976;28;20053;-66
2022/03/23 06:09:35;;;;;;;46.88;27.10;;;3.80;99.90;;;;;;4984154;28;20046;-66
2022/03/23 06:12:01;;;;;;;45.05;28.00;;;3.90;99.90;;;;;;4975900;28;20038;-66
2022/03/23 06:14:27;;;;;;;43.15;27.10;;;3.90;99.90;;;;;;4991745;28;20048;-67
2022/03/23 06:16:52;;;;;;;43.17;25.60;;;4.00;99.90;;;;;;4991697;28;20084;-67
2022/03/23 06:19:21;;;;;;;45.03;26.88;;;4.00;99.90;;;;;;4992272;28;20077;-68
2022/03/23 06:21:46;;;;;;;43.50;26.60;;;4.10;99.90;;;;;;4984718;28;20476;-66
2022/03/23 06:24:12;;;;;;;42.08;25.17;;;4.10;99.90;;;;;;4991493;28;20108;-67
2022/03/23 06:26:37;;;;;;;51.08;28.92;;;4.10;99.90;;;;;;4991697;28;20100;-66
2022/03/23 06:29:04;;;;;;;46.00;26.85;;;4.20;99.90;;;;;;4992392;28;20467;-65
2022/03/23 06:31:31;;;;;;;48.72;27.63;;;4.30;99.90;;;;;;4992657;28;20486;-67
2022/03/23 06:34:04;;;;;;;49.28;28.23;;;4.40;99.90;;;;;;4983910;28;20050;-66
2022/03/23 06:36:30;;;;;;;56.33;30.90;;;4.50;99.90;;;;;;4982820;28;20077;-66
2022/03/23 06:38:59;;;;;;;50.97;30.00;;;4.60;99.90;;;;;;4976308;28;20070;-66
2022/03/23 06:41:24;;;;;;;53.03;30.98;;;4.80;99.90;;;;;;4994725;28;20050;-66
2022/03/23 06:43:53;;;;;;;57.17;32.75;;;4.70;99.90;;;;;;4968941;28;20514;-65
2022/03/23 06:46:19;;;;;;;60.95;30.92;;;4.80;99.90;;;;;;4984254;28;20043;-67
2022/03/23 06:48:56;;;;;;;60.03;33.35;;;5.00;99.90;;;;;;4995134;28;20049;-65
2022/03/23 06:51:42;;;;;;;67.63;35.97;;;5.10;99.90;;;;;;5008308;28;20390;-67
2022/03/23 06:54:12;;;;;;;61.17;33.00;;;5.20;99.90;;;;;;4976963;28;20133;-66
2022/03/23 06:56:38;;;;;;;54.83;32.17;;;5.30;99.90;;;;;;4985678;28;20133;-67
2022/03/23 06:59:07;;;;;;;58.65;35.33;;;5.40;99.90;;;;;;4987846;28;20054;-65
2022/03/23 07:01:36;;;;;;;57.33;34.45;;;5.60;99.90;;;;;;4983375;28;20078;-67
2022/03/23 07:04:03;;;;;;;56.97;34.85;;;5.70;99.90;;;;;;4991401;28;20054;-66
2022/03/23 07:06:30;;;;;;;58.15;34.50;;;5.80;99.90;;;;;;4972799;28;20122;-66
2022/03/23 07:11:39;;;;;;;54.08;32.78;;;6.20;99.90;;;;;;4976637;28;20086;-65
2022/03/23 07:14:07;;;;;;;48.90;31.70;;;6.50;99.90;;;;;;4976492;28;20504;-66
2022/03/23 07:16:33;;;;;;;50.70;31.23;;;6.50;99.90;;;;;;4975925;28;20427;-66
2022/03/23 07:18:58;;;;;;;45.97;31.17;;;6.80;99.90;;;;;;4975859;28;20046;-66
2022/03/23 07:21:24;;;;;;;51.17;32.13;;;6.90;99.90;;;;;;4976753;28;20101;-67
2022/03/23 07:23:49;;;;;;;46.97;32.33;;;7.10;99.90;;;;;;4987654;28;20085;-66
2022/03/23 07:26:16;;;;;;;49.05;32.10;;;7.20;99.90;;;;;;4985790;28;20055;-66
2022/03/23 07:28:42;;;;;;;51.15;32.60;;;7.40;99.90;;;;;;4987924;28;20065;-66
2022/03/23 07:31:08;;;;;;;47.33;30.48;;;7.60;99.90;;;;;;4985470;28;20129;-66
2022/03/23 07:33:34;;;;;;;47.08;29.63;;;7.70;99.90;;;;;;4969030;28;20046;-66
2022/03/23 07:36:01;;;;;;;42.92;29.15;;;7.90;99.90;;;;;;4996876;28;20046;-67
2022/03/23 07:38:26;;;;;;;43.85;28.80;;;8.10;99.90;;;;;;4995008;28;20061;-66
2022/03/23 07:40:52;;;;;;;44.00;29.50;;;8.30;99.90;;;;;;4995162;28;20046;-66
2022/03/23 07:43:17;;;;;;;51.63;30.73;;;8.40;99.90;;;;;;4993841;28;20129;-68
2022/03/23 07:45:43;;;;;;;46.05;28.10;;;8.60;99.90;;;;;;4990052;28;20114;-67
2022/03/23 07:48:09;;;;;;;43.42;29.45;;;8.70;99.90;;;;;;4990683;28;20046;-68
2022/03/23 07:50:34;;;;;;;41.92;28.45;;;9.00;99.90;;;;;;4994097;28;20054;-66
2022/03/23 07:53:00;;;;;;;41.58;27.85;;;9.20;99.90;;;;;;5010905;28;20054;-66
2022/03/23 07:55:26;;;;;;;40.55;26.33;;;9.30;99.90;;;;;;4994770;28;20058;-65
2022/03/23 07:57:51;;;;;;;39.67;28.05;;;9.40;99.90;;;;;;4995972;28;20046;-65
2022/03/23 08:00:17;;;;;;;47.90;27.58;;;9.60;99.90;;;;;;4995375;28;20050;-66
2022/03/23 08:02:43;;;;;;;37.53;25.23;;;9.80;99.90;;;;;;4986452;28;20059;-66
2022/03/23 08:05:09;;;;;;;36.55;25.83;;;10.00;99.90;;;;;;4976747;28;20055;-66
2022/03/23 08:07:35;;;;;;;33.97;24.45;;;10.10;99.90;;;;;;4974934;28;20462;-66
2022/03/23 08:10:01;;;;;;;35.25;24.83;;;10.30;99.90;;;;;;4975979;28;20058;-67
2022/03/23 08:12:26;;;;;;;32.45;23.33;;;10.50;99.90;;;;;;4974877;28;20101;-66
2022/03/23 08:14:52;;;;;;;32.58;23.10;;;10.70;99.90;;;;;;4992035;28;20053;-67
2022/03/23 08:17:18;;;;;;;30.92;22.60;;;10.80;99.90;;;;;;4994503;28;20483;-67
2022/03/23 08:19:43;;;;;;;33.42;23.75;;;10.90;99.90;;;;;;4978325;28;20050;-67
2022/03/23 08:22:09;;;;;;;32.70;22.92;;;11.10;99.90;;;;;;4994281;28;20097;-67
2022/03/23 08:24:35;;;;;;;26.70;21.63;;;11.20;99.90;;;;;;4978014;28;20509;-67
2022/03/23 08:27:01;;;;;;;30.05;22.05;;;11.30;99.90;;;;;;4993627;28;20129;-66
2022/03/23 08:29:26;;;;;;;26.08;20.20;;;11.50;99.90;;;;;;4994608;28;20057;-68
2022/03/23 08:31:52;;;;;;;37.97;21.08;;;11.70;99.90;;;;;;4993727;28;20489;-67
2022/03/23 08:34:18;;;;;;;30.90;19.98;;;11.80;99.90;;;;;;4994272;28;20133;-66
2022/03/23 08:36:44;;;;;;;27.88;20.88;;;12.00;99.90;;;;;;4977821;28;20545;-66
2022/03/23 08:39:10;;;;;;;29.88;21.30;;;12.20;99.90;;;;;;4994299;28;20058;-67
2022/03/23 08:41:35;;;;;;;26.40;20.60;;;12.30;99.90;;;;;;4994576;28;20058;-66
2022/03/23 08:44:01;;;;;;;33.13;23.17;;;12.40;97.70;;;;;;4993560;28;20086;-67
2022/03/23 08:46:27;;;;;;;28.58;20.27;;;12.60;97.30;;;;;;4980976;28;20089;-67
2022/03/23 08:48:53;;;;;;;29.58;21.90;;;12.70;97.80;;;;;;4974918;28;20434;-67
2022/03/23 08:51:19;;;;;;;27.23;19.85;;;12.90;93.40;;;;;;4958464;28;20050;-67
2022/03/23 08:53:45;;;;;;;29.75;21.67;;;13.00;94.90;;;;;;4958092;28;20522;-67
2022/03/23 08:56:12;;;;;;;27.02;22.08;;;13.10;91.00;;;;;;4974342;28;20411;-67
2022/03/23 08:58:38;;;;;;;26.92;21.15;;;13.30;85.10;;;;;;4976335;28;20046;-67
2022/03/23 09:01:05;;;;;;;27.90;22.27;;;13.30;82.80;;;;;;4973916;28;20133;-68
2022/03/23 09:03:31;;;;;;;31.58;21.23;;;13.50;81.30;;;;;;4974971;28;20510;-67
2022/03/23 09:05:58;;;;;;;26.77;22.08;;;13.60;82.80;;;;;;4983452;28;20065;-66
2022/03/23 09:08:24;;;;;;;27.65;20.77;;;13.80;77.60;;;;;;4975545;28;20371;-66
2022/03/23 09:10:49;;;;;;;30.38;21.27;;;13.90;69.70;;;;;;4984759;28;20137;-67
2022/03/23 09:13:15;;;;;;;26.92;21.38;;;14.00;68.10;;;;;;4977327;28;20086;-65
2022/03/23 09:15:40;;;;;;;27.33;21.10;;;14.10;66.60;;;;;;4985451;28;20059;-66
2022/03/23 09:18:07;;;;;;;25.88;20.80;;;14.20;66.20;;;;;;4990986;28;20050;-66
2022/03/23 09:20:33;;;;;;;27.70;19.92;;;14.40;65.30;;;;;;4993815;28;20482;-67
2022/03/23 09:22:59;;;;;;;25.58;19.85;;;14.50;63.50;;;;;;4993193;28;20082;-66
2022/03/23 09:25:25;;;;;;;24.60;19.52;;;14.60;64.00;;;;;;4993193;28;20406;-67
2022/03/23 09:27:51;;;;;;;25.30;21.02;;;14.80;62.60;;;;;;4991640;28;20046;-67
2022/03/23 09:30:18;;;;;;;23.98;19.17;;;14.80;61.80;;;;;;4993326;28;20101;-66
2022/03/23 09:32:46;;;;;;;29.63;19.08;;;15.00;61.30;;;;;;4977013;28;20395;-66
2022/03/23 09:35:13;;;;;;;26.27;19.67;;;15.10;60.00;;;;;;4992643;28;20141;-65
2022/03/23 09:37:48;;;;;;;22.80;19.58;;;15.20;59.70;;;;;;4993411;28;20046;-66
2022/03/23 09:40:30;;;;;;;23.60;18.90;;;15.30;59.40;;;;;;4992804;28;20065;-66
2022/03/23 09:42:56;;;;;;;22.87;17.43;;;15.40;58.20;;;;;;4976302;28;20086;-68
2022/03/23 09:45:36;;;;;;;22.80;18.95;;;15.50;57.90;;;;;;4985534;28;20305;-66
2022/03/23 09:48:11;;;;;;;20.73;17.80;;;15.60;56.60;;;;;;4985988;28;20426;-66
2022/03/23 09:50:38;;;;;;;22.80;18.77;;;15.70;56.00;;;;;;4992682;28;20054;-66
2022/03/23 09:53:04;;;;;;;22.27;18.15;;;15.80;54.60;;;;;;4988650;28;20109;-66
2022/03/23 09:55:30;;;;;;;18.48;16.48;;;15.80;51.90;;;;;;4993066;28;20090;-65
2022/03/23 09:57:57;;;;;;;24.20;16.55;;;15.90;53.00;;;;;;4988516;28;20066;-66
2022/03/23 10:00:27;;;;;;;18.25;15.55;;;16.00;52.40;;;;;;4992528;28;20415;-65
2022/03/23 10:03:11;;;;;;;19.08;15.48;;;16.10;51.90;;;;;;4992634;28;20108;-65
2022/03/23 10:05:58;;;;;;;16.58;14.75;;;16.20;49.40;;;;;;4991621;28;20405;-67
2022/03/23 10:09:01;;;;;;;16.77;15.02;;;16.20;49.30;;;;;;4992284;28;20062;-64
2022/03/23 10:12:02;;;;;;;17.90;15.38;;;16.20;48.50;;;;;;4991668;28;20065;-65
2022/03/23 10:15:19;;;;;;;17.55;14.55;;;16.30;49.00;;;;;;4991772;28;20046;-64
2022/03/23 10:18:25;;;;;;;17.15;15.05;;;16.40;48.10;;;;;;4991228;28;20096;-65
2022/03/23 10:20:51;;;;;;;17.75;15.85;;;16.50;47.70;;;;;;4982855;28;20399;-65
2022/03/23 10:23:23;;;;;;;16.48;14.77;;;16.60;48.80;;;;;;4973379;28;20039;-65
2022/03/23 10:25:50;;;;;;;18.60;14.63;;;16.60;48.10;;;;;;4984737;28;20486;-66
2022/03/23 10:28:17;;;;;;;16.90;15.10;;;16.70;48.80;;;;;;4976376;28;20481;-64
2022/03/23 10:30:45;;;;;;;19.58;16.25;;;16.70;47.40;;;;;;4976503;28;20471;-65
2022/03/23 10:33:19;;;;;;;17.17;15.40;;;16.90;47.50;;;;;;4993735;28;20144;-66
2022/03/23 10:35:44;;;;;;;20.27;15.05;;;17.00;45.10;;;;;;4992086;28;20042;-66
2022/03/23 10:38:12;;;;;;;21.85;14.98;;;16.90;45.90;;;;;;4991893;28;20517;-66
2022/03/23 10:40:41;;;;;;;19.08;14.27;;;16.90;46.20;;;;;;4991445;28;20057;-66
2022/03/23 10:43:07;;;;;;;19.80;14.35;;;16.90;45.30;;;;;;4989200;28;20042;-66
2022/03/23 10:45:33;;;;;;;17.73;14.68;;;17.00;45.40;;;;;;4990205;28;20047;-65
2022/03/23 10:48:14;;;;;;;17.23;13.93;;;17.10;44.90;;;;;;4991758;28;20120;-65
2022/03/23 10:50:56;;;;;;;17.42;13.02;;;17.10;43.70;;;;;;5008675;28;20093;-65
2022/03/23 10:53:39;;;;;;;16.02;13.02;;;17.20;43.90;;;;;;4989592;28;20058;-64
2022/03/23 10:56:04;;;;;;;;;;;17.30;44.50;;;;;;4992150;28;20141;-64
2022/03/23 10:58:30;;;;;;;17.48;12.15;;;17.30;44.90;;;;;;4992272;28;20461;-64
2022/03/23 11:01:05;;;;;;;23.15;13.48;;;17.40;46.30;;;;;;4988031;28;20062;-65
2022/03/23 11:03:48;;;;;;;16.50;12.27;;;17.40;44.30;;;;;;4972349;28;20055;-65
2022/03/23 11:06:27;;;;;;;17.67;12.38;;;17.50;44.80;;;;;;4976529;28;20085;-65
2022/03/23 11:08:52;;;;;;;15.80;12.45;;;17.60;45.30;;;;;;4988358;28;20126;-64
2022/03/23 11:16:38;;;;;;;21.50;12.75;;;17.80;43.50;;;;;;4991186;28;20050;-66
2022/03/23 11:19:10;;;;;;;17.98;12.88;;;17.90;44.40;;;;;;4987261;28;20065;-65
2022/03/23 11:22:04;;;;;;;18.00;12.88;;;17.90;44.80;;;;;;4976216;28;20063;-64
2022/03/23 11:24:41;;;;;;;21.50;14.98;;;17.90;44.10;;;;;;4992086;28;20104;-65
2022/03/23 11:27:11;;;;;;;18.98;13.65;;;18.00;44.30;;;;;;4987283;28;20119;-64
2022/03/23 11:29:39;;;;;;;17.83;13.60;;;18.00;44.00;;;;;;4983769;28;20054;-65
2022/03/23 11:32:11;;;;;;;17.25;13.15;;;18.00;44.70;;;;;;4996559;28;20512;-63
2022/03/23 11:34:38;;;;;;;18.30;12.93;;;18.10;44.60;;;;;;4994568;28;20125;-66
2022/03/23 11:37:06;;;;;;;17.17;11.75;;;18.10;44.20;;;;;;4994772;28;20165;-66
2022/03/23 11:39:33;;;;;;;16.98;12.40;;;18.20;44.00;;;;;;4984317;28;20453;-66
2022/03/23 11:42:03;;;;;;;16.98;11.55;;;18.20;43.30;;;;;;4977975;28;20082;-66
2022/03/23 11:44:29;;;;;;;21.65;11.07;;;18.20;43.50;;;;;;4994369;28;20069;-66
2022/03/23 11:47:09;;;;;;;21.13;12.45;;;18.20;43.00;;;;;;4976958;28;20059;-65
2022/03/23 11:50:05;;;;;;;18.23;12.20;;;18.30;41.80;;;;;;4975909;28;20066;-66
2022/03/23 11:52:46;;;;;;;15.50;10.50;;;18.20;43.10;;;;;;4994615;28;20454;-65
2022/03/23 11:55:38;;;;;;;18.45;11.50;;;18.30;42.70;;;;;;4990710;28;20050;-66
2022/03/23 11:58:10;;;;;;;19.10;12.43;;;18.30;43.00;;;;;;4994572;28;20398;-65
2022/03/23 12:00:37;;;;;;;;;;;18.40;43.60;;;;;;5011810;28;20462;-65
2022/03/23 12:03:03;;;;;;;23.63;12.23;;;18.40;42.00;;;;;;5010270;28;19933;-65
2022/03/23 12:05:36;;;;;;;20.15;11.85;;;18.50;43.50;;;;;;4994318;28;20448;-66
2022/03/23 12:08:04;;;;;;;16.33;11.43;;;18.50;42.70;;;;;;4996043;28;20051;-66
2022/03/23 12:10:32;;;;;;;17.75;11.93;;;18.50;42.90;;;;;;4976972;28;20086;-65
2022/03/23 12:13:17;;;;;;;16.35;12.38;;;18.50;42.70;;;;;;4980834;28;20046;-65
2022/03/23 12:15:58;;;;;;;17.65;9.32;;;18.50;41.90;;;;;;4994591;28;20066;-66
2022/03/23 12:18:59;;;;;;;18.30;9.63;;;18.50;42.00;;;;;;4983927;28;20097;-65
2022/03/23 12:21:29;;;;;;;18.80;9.70;;;18.40;39.70;;;;;;4979027;28;20092;-65
2022/03/23 12:24:07;;;;;;;15.00;10.00;;;18.40;41.80;;;;;;4993714;28;20475;-65
2022/03/23 12:26:39;;;;;;;18.23;10.90;;;18.40;42.30;;;;;;4974424;28;20050;-65
2022/03/23 12:29:12;;;;;;;18.38;10.75;;;18.50;42.60;;;;;;4974870;28;20055;-66
2022/03/23 12:31:39;;;;;;;17.67;10.02;;;18.60;42.70;;;;;;4976154;28;20129;-66
2022/03/23 12:34:17;;;;;;;17.88;9.77;;;18.70;42.70;;;;;;4976500;28;20064;-65
2022/03/23 12:36:57;;;;;;;19.05;9.98;;;18.70;41.70;;;;;;4994160;28;20066;-65
2022/03/23 12:39:29;;;;;;;22.95;9.35;;;18.70;42.10;;;;;;4995589;28;20133;-65
2022/03/23 12:41:57;;;;;;;18.77;8.68;;;18.70;42.00;;;;;;4993255;28;20062;-65
2022/03/23 12:44:33;;;;;;;18.52;9.25;;;18.70;42.20;;;;;;4993866;28;20069;-67
2022/03/23 12:47:14;;;;;;;17.13;9.25;;;18.70;41.50;;;;;;4995104;28;20054;-65
2022/03/23 12:58:09;;;;;;;21.35;9.35;;;18.90;41.90;;;;;;4974090;28;20055;-65
2022/03/23 13:00:41;;;;;;;22.42;9.38;;;18.90;41.80;;;;;;5006810;28;20047;-65
2022/03/23 13:03:06;;;;;;;18.23;9.05;;;18.90;41.80;;;;;;4995084;28;20069;-64
2022/03/23 13:05:57;;;;;;;20.25;9.23;;;18.90;42.00;;;;;;4994762;28;20054;-64
2022/03/23 13:08:38;;;;;;;23.38;8.82;;;18.80;41.30;;;;;;4993044;28;20384;-65